Time;durP1;ratioP1;P1;durP2;ratioP2;P2;SDS_P1;SDS_P2;PMS_P1;PMS_P2;Temp;Humidity;BMP_temperature;BMP_pressure;BME280_temperature;BME280_humidity;BME280_pressure;Samples;Min_cycle;Max_cycle;Signal;HPM_P1;HPM_P2
2022/03/03 00:00:24;;;;;;;26.65;13.90;;;;;;;-1.78;56.70;99233.22;5011422;28;20034;-76
2022/03/03 00:02:49;;;;;;;29.63;14.88;;;;;;;-1.79;56.80;99241.63;4995103;28;20497;-74
2022/03/03 00:05:15;;;;;;;22.52;12.95;;;;;;;-1.81;57.00;99233.09;5012409;28;20598;-75
2022/03/03 00:07:41;;;;;;;25.02;11.77;;;;;;;-1.89;56.95;99225.16;5012397;28;20069;-75
2022/03/03 00:10:07;;;;;;;24.77;12.45;;;;;;;-1.86;57.18;99232.06;5010976;28;20050;-75
2022/03/03 00:12:33;;;;;;;31.27;13.07;;;;;;;-1.85;56.57;99221.06;5010980;28;20501;-75
2022/03/03 00:14:58;;;;;;;24.52;12.43;;;;;;;-1.77;57.40;99224.78;5010983;28;20033;-77
2022/03/03 00:17:24;;;;;;;28.58;12.73;;;;;;;-1.72;56.62;99225.81;4995131;28;20041;-77
2022/03/03 00:19:50;;;;;;;25.42;12.73;;;;;;;-1.69;56.69;99215.75;5010619;28;20505;-75
2022/03/03 00:22:16;;;;;;;24.77;12.60;;;;;;;-1.69;57.02;99218.31;5010892;28;20420;-75
2022/03/03 00:24:42;;;;;;;23.95;11.45;;;;;;;-1.72;55.95;99223.28;5010701;28;20076;-74
2022/03/03 00:27:08;;;;;;;23.00;11.45;;;;;;;-1.75;55.81;99225.69;4994665;28;20100;-75
2022/03/03 00:29:33;;;;;;;22.27;10.90;;;;;;;-1.81;56.05;99213.63;5010704;28;20492;-75
2022/03/03 00:31:59;;;;;;;22.42;11.77;;;;;;;-1.90;56.64;99207.31;4994677;28;20046;-74
2022/03/03 00:34:24;;;;;;;25.80;12.68;;;;;;;-1.93;56.76;99209.72;5016787;28;20437;-75
2022/03/03 00:36:50;;;;;;;28.75;12.88;;;;;;;-1.99;57.47;99217.13;5031733;28;20044;-74
2022/03/03 00:39:16;;;;;;;23.65;12.85;;;;;;;-2.00;57.41;99212.88;5030437;28;20041;-74
2022/03/03 00:41:41;;;;;;;26.77;13.25;;;;;;;-1.99;56.78;99209.50;5030338;28;20513;-74
2022/03/03 00:44:09;;;;;;;22.17;12.18;;;;;;;-2.00;57.14;99208.66;5030134;28;20122;-76
2022/03/03 00:46:36;;;;;;;26.63;12.88;;;;;;;-2.02;57.47;99210.25;5030371;28;20033;-75
2022/03/03 00:49:02;;;;;;;21.90;12.93;;;;;;;-2.05;57.64;99208.47;5013738;28;20124;-76
2022/03/03 00:51:28;;;;;;;23.27;11.18;;;;;;;-2.07;57.45;99207.53;5022541;28;20041;-76
2022/03/03 00:53:53;;;;;;;22.27;12.18;;;;;;;-2.07;57.40;99199.91;5029688;28;20053;-76
2022/03/03 00:56:19;;;;;;;19.90;11.98;;;;;;;-2.06;57.27;99199.13;5013880;28;20037;-76
2022/03/03 00:58:45;;;;;;;25.58;13.02;;;;;;;-2.03;57.22;99195.81;5030884;28;20038;-76
2022/03/03 01:01:11;;;;;;;24.65;12.32;;;;;;;-2.06;57.34;99183.88;5013577;28;20056;-76
2022/03/03 01:03:36;;;;;;;23.73;12.23;;;;;;;-2.05;57.49;99192.34;5031082;28;20396;-74
2022/03/03 01:06:02;;;;;;;23.65;12.18;;;;;;;-2.06;57.22;99191.50;5029872;28;20063;-75
2022/03/03 01:08:27;;;;;;;21.30;11.77;;;;;;;-2.15;58.17;99193.69;5030930;28;20038;-76
2022/03/03 01:10:54;;;;;;;24.13;11.13;;;;;;;-2.19;57.33;99188.44;5029967;28;20041;-75
2022/03/03 01:13:21;;;;;;;;;;;;;;;-2.19;58.57;99184.22;5030554;28;20041;-75
2022/03/03 01:15:47;;;;;;;28.40;11.65;;;;;;;-2.17;58.08;99177.50;5029436;28;19917;-74
2022/03/03 01:18:13;;;;;;;24.95;10.68;;;;;;;-2.17;57.87;99176.63;5029731;28;20072;-74
2022/03/03 01:20:38;;;;;;;22.92;11.55;;;;;;;-2.24;58.10;99170.47;5031023;28;20056;-76
2022/03/03 01:23:04;;;;;;;24.98;11.75;;;;;;;-2.37;57.92;99161.50;4981212;28;20092;-76
2022/03/03 01:25:30;;;;;;;22.30;11.18;;;;;;;-2.36;58.22;99157.28;5010081;28;20049;-75
2022/03/03 01:27:55;;;;;;;23.77;11.18;;;;;;;-2.28;59.14;99170.28;5009839;28;20089;-75
2022/03/03 01:30:21;;;;;;;21.95;11.43;;;;;;;-2.29;58.65;99169.44;5026624;28;20482;-75
2022/03/03 01:32:47;;;;;;;22.38;11.48;;;;;;;-2.36;58.45;99164.91;5011226;28;20042;-75
2022/03/03 01:35:12;;;;;;;20.88;10.95;;;;;;;-2.41;58.87;99158.78;5011195;28;20381;-76
2022/03/03 01:37:38;;;;;;;19.50;10.10;;;;;;;-2.46;58.74;99158.59;5009953;28;20038;-76
2022/03/03 01:40:04;;;;;;;23.27;10.52;;;;;;;-2.45;58.76;99154.38;5009781;28;20044;-76
2022/03/03 01:42:30;;;;;;;20.25;10.57;;;;;;;-2.49;59.09;99150.84;4977345;28;20041;-76
2022/03/03 01:44:55;;;;;;;26.23;11.63;;;;;;;-2.52;58.92;99154.94;5025795;28;20049;-75
2022/03/03 01:47:23;;;;;;;22.05;10.55;;;;;;;-2.58;59.20;99148.81;5026580;28;20037;-76
2022/03/03 01:49:49;;;;;;;21.88;10.82;;;;;;;-2.56;58.92;99157.38;5010959;28;20570;-75
2022/03/03 01:52:14;;;;;;;;;;;;;;;-2.62;59.81;99157.09;5011711;28;20038;-75
2022/03/03 01:54:40;;;;;;;22.13;10.73;;;;;;;-2.62;59.43;99152.03;5010774;28;20416;-75
2022/03/03 01:57:07;;;;;;;19.13;10.68;;;;;;;-2.64;59.19;99146.03;4993721;28;20501;-75
2022/03/03 01:59:33;;;;;;;22.55;11.27;;;;;;;-2.62;59.21;99141.88;5013933;28;20033;-75
2022/03/03 02:01:59;;;;;;;23.35;11.60;;;;;;;-2.65;59.15;99143.44;5030683;28;20116;-75
2022/03/03 02:04:25;;;;;;;23.83;11.77;;;;;;;-2.68;59.24;99141.63;4996455;28;20048;-75
2022/03/03 02:06:51;;;;;;;25.98;12.15;;;;;;;-2.77;59.60;99137.88;5029530;28;20037;-76
2022/03/03 02:09:17;;;;;;;25.65;12.48;;;;;;;-2.85;59.49;99138.41;5030293;28;20041;-75
2022/03/03 02:11:45;;;;;;;26.10;12.45;;;;;;;-2.88;59.16;99139.97;5016640;28;20056;-75
2022/03/03 02:14:11;;;;;;;24.20;12.63;;;;;;;-2.91;59.88;99132.22;5017033;28;20041;-75
2022/03/03 02:16:37;;;;;;;29.25;12.55;;;;;;;-2.95;59.84;99126.16;5034478;28;20091;-75
2022/03/03 02:19:03;;;;;;;23.77;11.55;;;;;;;-2.95;60.02;99121.09;5016584;28;20053;-75
2022/03/03 02:21:30;;;;;;;25.75;11.18;;;;;;;-2.86;59.68;99115.50;5032748;28;20435;-75
2022/03/03 02:23:56;;;;;;;23.70;11.55;;;;;;;-2.77;59.50;99115.88;5016445;28;20498;-75
2022/03/03 02:26:22;;;;;;;23.25;10.57;;;;;;;-2.69;59.49;99108.59;5016376;28;20038;-75
2022/03/03 02:28:48;;;;;;;;;;;;;;;-2.62;59.04;99108.84;5017038;28;20045;-76
2022/03/03 02:31:13;;;;;;;18.75;10.25;;;;;;;-2.52;58.72;99109.22;5032669;28;19912;-76
2022/03/03 02:33:39;;;;;;;20.20;10.05;;;;;;;-2.45;57.53;99101.91;5034039;28;20099;-75
2022/03/03 02:36:19;;;;;;;22.27;9.77;;;;;;;-2.39;58.84;99098.72;5033572;28;20109;-75
2022/03/03 02:38:45;;;;;;;21.50;10.10;;;;;;;-2.33;57.91;99096.44;4999962;28;20037;-75
2022/03/03 02:41:11;;;;;;;18.05;9.38;;;;;;;-2.33;57.55;99099.84;5032374;28;20033;-76
2022/03/03 02:43:37;;;;;;;18.45;9.20;;;;;;;-2.36;58.25;99093.78;5016054;28;20033;-75
2022/03/03 02:46:02;;;;;;;20.15;9.43;;;;;;;-2.35;58.05;99085.34;5032348;28;20064;-75
2022/03/03 02:48:28;;;;;;;17.73;9.63;;;;;;;-2.32;57.82;99086.31;5015662;28;20041;-76
2022/03/03 02:50:54;;;;;;;20.20;9.48;;;;;;;-2.24;57.89;99076.47;5015869;28;20079;-75
2022/03/03 02:53:19;;;;;;;16.42;8.57;;;;;;;-2.18;57.95;99074.13;5031870;28;20045;-76
2022/03/03 02:55:45;;;;;;;22.50;9.52;;;;;;;-2.18;57.07;99069.06;5033442;28;20045;-75
2022/03/03 02:58:11;;;;;;;19.80;9.20;;;;;;;-2.16;57.06;99064.88;5015670;28;20392;-75
2022/03/03 03:00:42;;;;;;;18.35;9.75;;;;;;;-2.16;56.83;99056.41;5015624;28;20083;-75
2022/03/03 03:03:09;;;;;;;16.83;9.07;;;;;;;-2.14;56.67;99062.41;5031955;28;20045;-75
2022/03/03 03:05:34;;;;;;;;;;;;;;;-2.14;57.63;99059.88;5032345;28;20037;-76
2022/03/03 03:08:00;;;;;;;19.50;8.90;;;;;;;-2.09;57.27;99058.38;5031714;28;19986;-75
2022/03/03 03:10:26;;;;;;;19.42;9.55;;;;;;;-2.11;56.71;99044.72;5033269;28;20042;-76
2022/03/03 03:12:51;;;;;;;18.23;8.77;;;;;;;-2.07;57.49;99042.34;5032036;28;20111;-75
2022/03/03 03:15:17;;;;;;;15.70;9.38;;;;;;;-2.07;57.04;99028.78;5033130;28;20071;-76
2022/03/03 03:17:43;;;;;;;20.65;9.55;;;;;;;-2.02;57.06;99036.56;5015019;28;20404;-75
2022/03/03 03:20:09;;;;;;;18.65;9.75;;;;;;;-2.03;56.60;99037.38;5015258;28;20044;-76
2022/03/03 03:22:35;;;;;;;;;;;;;;;-2.05;56.72;99044.97;5015252;28;20041;-74
2022/03/03 03:25:02;;;;;;;17.20;8.98;;;;;;;-2.01;57.09;99041.72;5031846;28;19912;-75
2022/03/03 03:27:28;;;;;;;19.27;8.85;;;;;;;-2.00;56.87;99030.72;5032711;28;20048;-75
2022/03/03 03:29:54;;;;;;;16.58;8.65;;;;;;;-2.00;56.58;99023.09;5015525;28;20801;-75
2022/03/03 03:32:19;;;;;;;17.63;8.30;;;;;;;-2.03;56.79;99022.13;5024385;28;20497;-75
2022/03/03 03:34:45;;;;;;;17.73;8.55;;;;;;;-2.08;56.56;99016.88;5014638;28;20128;-75
2022/03/03 03:37:11;;;;;;;18.70;9.20;;;;;;;-2.10;56.28;99019.38;5031379;28;20049;-75
2022/03/03 03:39:36;;;;;;;20.20;8.23;;;;;;;-2.10;56.93;99021.94;5032460;28;20159;-75
2022/03/03 03:42:02;;;;;;;19.25;8.15;;;;;;;-2.08;57.48;99027.91;5029136;28;20041;-75
2022/03/03 03:44:28;;;;;;;14.05;8.10;;;;;;;-2.04;57.04;99013.66;5031398;28;20044;-77
2022/03/03 03:46:54;;;;;;;16.17;6.80;;;;;;;-1.99;55.98;99013.81;5031480;28;20393;-76
2022/03/03 03:49:19;;;;;;;18.52;7.55;;;;;;;-1.94;56.56;99012.28;5022904;28;20038;-76
2022/03/03 03:51:48;;;;;;;13.70;6.90;;;;;;;-1.93;56.48;99003.84;5012979;28;20057;-75
2022/03/03 03:54:13;;;;;;;15.80;7.50;;;;;;;-1.91;56.08;99007.31;5012213;28;20057;-76
2022/03/03 03:56:39;;;;;;;12.27;6.70;;;;;;;-1.90;56.33;99003.97;5019603;28;20048;-76
2022/03/03 03:59:05;;;;;;;15.02;7.00;;;;;;;-1.94;55.89;98997.91;5031466;28;20034;-76
2022/03/03 04:01:31;;;;;;;15.43;7.60;;;;;;;-1.93;56.60;98993.69;5014406;28;20046;-75
2022/03/03 04:03:57;;;;;;;16.40;7.45;;;;;;;-1.94;56.41;98997.03;5032595;28;20049;-75
2022/03/03 04:06:23;;;;;;;15.30;7.18;;;;;;;-1.94;56.42;98994.50;5032594;28;20119;-76
2022/03/03 04:08:49;;;;;;;14.20;7.63;;;;;;;-1.93;56.76;98998.75;5014880;28;20060;-76
2022/03/03 04:11:14;;;;;;;19.55;7.68;;;;;;;-1.86;56.14;98993.09;5015270;28;20043;-76
2022/03/03 04:13:40;;;;;;;17.90;7.70;;;;;;;-1.84;56.97;98994.84;5031586;28;20573;-76
2022/03/03 04:16:06;;;;;;;18.92;8.32;;;;;;;-1.78;57.07;98993.34;5032795;28;20080;-75
2022/03/03 04:18:32;;;;;;;23.75;8.63;;;;;;;-1.76;57.14;98992.59;5031093;28;20045;-76
2022/03/03 04:20:57;;;;;;;15.68;9.23;;;;;;;-1.69;56.82;98984.38;5032485;28;20116;-75
2022/03/03 04:23:23;;;;;;;16.65;8.43;;;;;;;-1.60;57.15;98988.91;5014877;28;20037;-76
2022/03/03 04:25:48;;;;;;;17.75;8.18;;;;;;;-1.54;56.89;98978.91;5032366;28;20049;-76
2022/03/03 04:28:14;;;;;;;17.58;7.78;;;;;;;-1.54;56.21;98978.91;5032244;28;20438;-76
2022/03/03 04:30:40;;;;;;;17.45;7.95;;;;;;;-1.52;56.76;98984.91;5032277;28;20048;-76
2022/03/03 04:33:05;;;;;;;18.98;7.88;;;;;;;-1.46;56.52;98981.72;5031581;28;20041;-76
2022/03/03 04:35:31;;;;;;;16.33;7.57;;;;;;;-1.45;56.18;98974.13;5032327;28;20037;-76
2022/03/03 04:37:57;;;;;;;15.20;7.60;;;;;;;-1.42;55.91;98973.34;5031169;28;20041;-75
2022/03/03 04:40:23;;;;;;;23.52;8.52;;;;;;;-1.39;56.11;98978.53;5014523;28;20041;-75
2022/03/03 04:42:49;;;;;;;74.30;45.47;;;;;;;-1.30;56.44;98976.28;5031065;28;20102;-75
2022/03/03 04:45:15;;;;;;;16.10;8.38;;;;;;;-1.28;56.19;98972.13;5031130;28;20404;-76
2022/03/03 04:47:41;;;;;;;18.05;7.53;;;;;;;-1.21;55.62;98970.63;5030841;28;20038;-76
2022/03/03 04:50:07;;;;;;;15.65;6.47;;;;;;;-1.13;54.60;98981.91;5032156;28;20060;-76
2022/03/03 04:52:33;;;;;;;9.15;5.03;;;;;;;-1.10;53.77;98982.00;5030884;28;20033;-76
2022/03/03 04:54:59;;;;;;;14.10;6.88;;;;;;;-1.07;53.27;98988.06;5030684;28;20524;-76
2022/03/03 04:57:24;;;;;;;11.45;5.88;;;;;;;-0.98;53.55;98981.53;5030816;28;20061;-74
2022/03/03 04:59:50;;;;;;;13.43;6.10;;;;;;;-0.93;53.26;98979.97;5030829;28;20041;-76
2022/03/03 05:02:15;;;;;;;11.73;6.07;;;;;;;-0.91;53.26;98983.44;5014162;28;20052;-76
2022/03/03 05:04:41;;;;;;;21.42;8.02;;;;;;;-0.89;54.68;98979.25;5014238;28;20068;-75
2022/03/03 05:07:07;;;;;;;13.60;6.00;;;;;;;-0.94;53.94;98980.81;5014191;28;20099;-76
2022/03/03 05:09:32;;;;;;;20.00;7.93;;;;;;;-0.91;55.66;98974.13;5031791;28;20049;-76
2022/03/03 05:11:59;;;;;;;19.63;7.78;;;;;;;-0.86;55.26;98981.91;5031598;28;20041;-76
2022/03/03 05:14:25;;;;;;;21.48;9.45;;;;;;;-0.83;55.50;98975.19;5014307;28;20037;-75
2022/03/03 05:16:51;;;;;;;31.77;16.25;;;;;;;-0.81;55.64;98970.19;5030468;28;20032;-75
2022/03/03 05:19:17;;;;;;;34.17;13.00;;;;;;;-0.81;56.36;98960.00;5031748;28;20054;-75
2022/03/03 05:21:42;;;;;;;24.38;10.13;;;;;;;-0.80;56.48;98956.63;5031526;28;20033;-75
2022/03/03 05:24:08;;;;;;;24.05;11.30;;;;;;;-0.81;57.17;98952.34;5031763;28;20390;-75
2022/03/03 05:26:34;;;;;;;22.23;11.32;;;;;;;-0.85;57.62;98953.06;5030393;28;20069;-76
2022/03/03 05:29:00;;;;;;;;;;;;;;;-0.89;58.38;98961.44;5030975;28;20041;-75
2022/03/03 05:31:25;;;;;;;23.13;10.38;;;;;;;-0.89;58.04;98953.78;5030600;28;19967;-75
2022/03/03 05:33:51;;;;;;;23.08;9.57;;;;;;;-0.94;57.71;98953.66;5031913;28;20037;-76
2022/03/03 05:36:17;;;;;;;25.33;10.60;;;;;;;-1.00;57.88;98950.94;5014213;28;20040;-76
2022/03/03 05:38:43;;;;;;;24.10;10.98;;;;;;;-1.10;57.91;98957.44;5014293;28;20099;-76
2022/03/03 05:41:08;;;;;;;27.05;9.65;;;;;;;-1.13;57.92;98951.38;5013885;28;20037;-75
2022/03/03 05:43:35;;;;;;;26.88;10.40;;;;;;;-1.15;57.92;98941.13;4997706;28;20061;-75
2022/03/03 05:46:01;;;;;;;27.00;9.93;;;;;;;-1.11;58.04;98942.94;5016941;28;20033;-75
2022/03/03 05:48:27;;;;;;;;;;;;;;;-1.12;58.33;98948.88;5034921;28;20485;-74
2022/03/03 05:50:52;;;;;;;34.30;11.25;;;;;;;-1.12;58.25;98946.31;5035353;28;19920;-76
2022/03/03 05:53:19;;;;;;;28.42;10.98;;;;;;;-1.22;57.98;98944.31;5033978;28;20546;-76
2022/03/03 05:55:49;;;;;;;;;;;;;;;-1.32;58.09;98937.22;5034394;28;20516;-75
2022/03/03 05:58:15;;;;;;;34.90;12.75;;;;;;;-1.41;58.24;98942.03;5033881;28;20312;-74
2022/03/03 06:00:47;;;;;;;36.67;12.18;;;;;;;-1.47;57.70;98937.56;5017712;28;20495;-75
2022/03/03 06:03:13;;;;;;;32.28;12.57;;;;;;;-1.47;57.38;98937.56;5033970;28;20096;-75
2022/03/03 06:05:41;;;;;;;41.58;12.98;;;;;;;-1.52;57.46;98936.56;5017582;28;20029;-74
2022/03/03 06:08:07;;;;;;;36.85;13.18;;;;;;;-1.46;57.18;98939.34;5033906;28;20049;-75
2022/03/03 06:10:33;;;;;;;44.42;13.30;;;;;;;-1.45;57.54;98947.81;5018120;28;20823;-76
2022/03/03 06:13:14;;;;;;;38.15;15.32;;;;;;;-1.44;57.43;98941.91;5017337;28;20416;-75
2022/03/03 06:15:42;;;;;;;43.88;18.90;;;;;;;-1.35;56.92;98937.13;5033678;28;20045;-75
2022/03/03 06:18:08;;;;;;;39.20;18.77;;;;;;;-1.30;57.02;98935.56;5033948;28;20033;-76
2022/03/03 06:20:34;;;;;;;48.50;19.35;;;;;;;-1.21;57.04;98937.53;4984939;28;20048;-74
2022/03/03 06:23:00;;;;;;;43.10;19.65;;;;;;;-1.15;56.38;98938.59;5033945;28;20065;-76
2022/03/03 06:25:26;;;;;;;45.63;19.67;;;;;;;-1.03;55.93;98943.19;5033906;28;20076;-75
2022/03/03 06:27:52;;;;;;;;;;;;;;;-0.95;56.09;98936.66;5035243;28;20041;-75
2022/03/03 06:30:17;;;;;;;41.25;17.83;;;;;;;-0.84;56.19;98935.28;5034846;28;19917;-75
2022/03/03 06:32:43;;;;;;;32.15;16.23;;;;;;;-0.72;55.61;98929.69;5034885;28;20496;-75
2022/03/03 06:35:09;;;;;;;31.05;13.77;;;;;;;-0.57;54.80;98932.66;5034829;28;20063;-75
2022/03/03 06:37:34;;;;;;;24.73;14.00;;;;;;;-0.49;54.08;98932.91;5034588;28;20519;-75
2022/03/03 06:40:00;;;;;;;34.00;11.90;;;;;;;-0.34;54.04;98935.84;5034734;28;20049;-75
2022/03/03 06:42:26;;;;;;;24.30;11.25;;;;;;;-0.22;53.41;98932.78;5034603;28;20046;-75
2022/03/03 06:44:54;;;;;;;21.88;10.30;;;;;;;-0.08;53.06;98936.56;5033497;28;20396;-75
2022/03/03 06:47:21;;;;;;;28.70;9.80;;;;;;;0.03;52.53;98938.53;5032853;28;20044;-76
2022/03/03 06:49:47;;;;;;;21.65;10.30;;;;;;;0.11;52.42;98927.72;5033086;28;20117;-76
2022/03/03 06:52:14;;;;;;;16.80;9.13;;;;;;;0.20;52.08;98933.03;5034513;28;20033;-75
2022/03/03 06:54:40;;;;;;;24.95;9.15;;;;;;;0.24;51.73;98924.66;5034189;28;20053;-76
2022/03/03 06:57:05;;;;;;;15.48;7.88;;;;;;;0.32;51.28;98919.75;5032645;28;20095;-76
2022/03/03 06:59:34;;;;;;;13.40;7.50;;;;;;;0.36;51.25;98915.56;5033821;28;20129;-76
2022/03/03 07:02:00;;;;;;;17.90;8.30;;;;;;;0.41;51.38;98913.97;5001410;28;20040;-75
2022/03/03 07:04:28;;;;;;;15.18;7.03;;;;;;;0.54;50.99;98915.13;5034451;28;20045;-76
2022/03/03 07:06:54;;;;;;;18.85;7.75;;;;;;;0.61;50.92;98909.38;5016357;28;20718;-75
2022/03/03 07:09:19;;;;;;;19.05;7.50;;;;;;;0.68;50.69;98906.13;5016265;28;20060;-75
2022/03/03 07:11:46;;;;;;;17.35;7.28;;;;;;;0.74;50.81;98891.81;5034316;28;20045;-76
2022/03/03 07:14:11;;;;;;;;;;;;;;;0.83;50.01;98901.38;5016668;28;20041;-76
2022/03/03 07:16:40;;;;;;;17.95;7.65;;;;;;;0.92;50.15;98904.13;5032849;28;20326;-74
2022/03/03 07:19:12;;;;;;;16.92;7.15;;;;;;;1.00;50.30;98894.94;5032439;28;20149;-76
2022/03/03 07:21:56;;;;;;;12.48;6.22;;;;;;;1.10;49.43;98895.13;5016308;28;20095;-76
2022/03/03 07:24:29;;;;;;;14.02;6.35;;;;;;;1.18;49.54;98893.59;5033695;28;20044;-76
2022/03/03 07:26:57;;;;;;;21.27;8.48;;;;;;;1.24;49.59;98892.06;5032390;28;20468;-77
2022/03/03 07:29:25;;;;;;;16.30;7.93;;;;;;;1.23;49.93;98886.88;5016643;28;20037;-76
2022/03/03 07:31:55;;;;;;;20.48;7.38;;;;;;;1.30;49.84;98895.56;4999559;28;20049;-75
2022/03/03 07:34:26;;;;;;;13.18;7.38;;;;;;;1.39;49.27;98894.03;5033703;28;20046;-75
2022/03/03 07:36:52;;;;;;;18.02;7.68;;;;;;;1.41;49.16;98889.81;5032551;28;20037;-77
2022/03/03 07:39:17;;;;;;;16.40;7.38;;;;;;;1.48;49.33;98894.22;5032715;28;20057;-76
2022/03/03 07:41:43;;;;;;;18.23;6.97;;;;;;;1.53;49.43;98891.75;5015697;28;20091;-76
2022/03/03 07:44:09;;;;;;;19.40;7.57;;;;;;;1.62;49.17;98896.19;4999447;28;20040;-75
2022/03/03 07:46:34;;;;;;;15.93;7.32;;;;;;;1.67;48.60;98894.59;5033628;28;20597;-76
2022/03/03 07:49:00;;;;;;;17.75;6.88;;;;;;;1.73;48.83;98893.00;5032102;28;20029;-77
2022/03/03 07:51:27;;;;;;;17.10;7.20;;;;;;;1.77;48.43;98888.81;5033207;28;20045;-75
2022/03/03 07:53:53;;;;;;;13.10;6.93;;;;;;;1.84;48.30;98894.91;5033370;28;20114;-75
2022/03/03 07:56:29;;;;;;;;;;;;;;;1.87;48.69;98893.25;5032750;28;20095;-76
2022/03/03 07:59:01;;;;;;;14.70;5.68;;;;;;;1.88;48.01;98887.31;5033052;28;19916;-75
2022/03/03 08:01:28;;;;;;;11.30;6.47;;;;;;;1.96;48.16;98888.28;5015441;28;20049;-76
2022/03/03 08:03:54;;;;;;;16.83;6.93;;;;;;;1.98;47.81;98884.09;5015190;28;20037;-76
2022/03/03 08:06:20;;;;;;;14.63;7.40;;;;;;;1.98;47.89;98886.63;5015114;28;20095;-75
2022/03/03 08:08:45;;;;;;;13.52;6.25;;;;;;;2.19;47.52;98885.28;5031947;28;20114;-75
2022/03/03 08:11:11;;;;;;;16.45;6.57;;;;;;;2.33;47.38;98888.06;4998955;28;20468;-76
2022/03/03 08:13:37;;;;;;;14.68;6.82;;;;;;;2.47;47.45;98879.75;5032788;28;20048;-75
2022/03/03 08:16:03;;;;;;;20.85;7.47;;;;;;;2.68;47.18;98883.50;5031666;28;20041;-76
2022/03/03 08:18:32;;;;;;;16.60;7.00;;;;;;;2.76;47.15;98879.34;5031653;28;20041;-75
2022/03/03 08:21:02;;;;;;;17.73;7.05;;;;;;;2.89;46.81;98883.81;5032898;28;20045;-77
2022/03/03 08:23:27;;;;;;;13.70;6.00;;;;;;;2.98;46.14;98881.38;5015324;28;20419;-75
2022/03/03 08:25:54;;;;;;;17.50;6.00;;;;;;;3.02;46.08;98880.59;5031388;28;20152;-76
2022/03/03 08:28:23;;;;;;;12.00;5.90;;;;;;;3.03;45.61;98874.63;5032579;28;20132;-76
2022/03/03 08:30:58;;;;;;;14.73;6.20;;;;;;;3.04;45.04;98876.34;5031399;28;20037;-77
2022/03/03 08:33:37;;;;;;;12.13;6.13;;;;;;;3.10;44.82;98874.69;5031716;28;20581;-76
2022/03/03 08:36:03;;;;;;;15.75;5.95;;;;;;;3.10;45.29;98874.69;5031116;28;20488;-76
2022/03/03 08:38:39;;;;;;;19.67;6.75;;;;;;;3.09;44.78;98870.41;5014863;28;20039;-76
2022/03/03 08:41:05;;;;;;;11.80;5.63;;;;;;;3.09;44.90;98867.84;4998713;28;20048;-76
2022/03/03 08:43:31;;;;;;;14.10;6.35;;;;;;;3.14;44.75;98876.44;4998864;28;20029;-75
2022/03/03 08:46:04;;;;;;;15.77;7.97;;;;;;;3.17;44.85;98869.66;5031230;28;20052;-75
2022/03/03 08:48:31;;;;;;;15.23;7.30;;;;;;;3.27;44.82;98873.22;5031438;28;20033;-76
2022/03/03 08:50:57;;;;;;;13.27;6.45;;;;;;;3.25;44.94;98862.06;5032351;28;20033;-76
2022/03/03 08:53:23;;;;;;;15.35;7.53;;;;;;;3.36;44.79;98865.63;5031025;28;20041;-76
2022/03/03 08:55:48;;;;;;;18.20;7.13;;;;;;;3.44;43.95;98858.88;5031064;28;20045;-75
2022/03/03 08:58:14;;;;;;;13.55;6.60;;;;;;;3.51;44.15;98863.22;5014912;28;20033;-76
2022/03/03 09:00:40;;;;;;;12.82;7.18;;;;;;;3.56;44.33;98860.72;5014565;28;20508;-74
2022/03/03 09:03:05;;;;;;;18.42;7.07;;;;;;;3.68;44.04;98860.00;5032247;28;20873;-76
2022/03/03 09:05:32;;;;;;;17.48;7.03;;;;;;;3.78;44.10;98861.81;5030853;28;20033;-76
2022/03/03 09:07:57;;;;;;;15.30;7.05;;;;;;;3.88;43.96;98855.91;5032309;28;20045;-75
2022/03/03 09:10:23;;;;;;;15.00;6.93;;;;;;;4.01;43.80;98855.19;4997989;28;20507;-76
2022/03/03 09:12:49;;;;;;;14.13;6.47;;;;;;;4.03;43.32;98853.50;5029753;28;20528;-76
2022/03/03 09:15:15;;;;;;;11.80;6.30;;;;;;;4.04;42.95;98852.66;5030730;28;20512;-76
2022/03/03 09:17:41;;;;;;;21.88;6.90;;;;;;;4.11;43.21;98843.28;5031877;28;20064;-75
2022/03/03 09:20:08;;;;;;;17.05;7.15;;;;;;;4.22;42.90;98843.41;5030215;28;20034;-76
2022/03/03 09:22:34;;;;;;;13.77;5.75;;;;;;;4.40;42.60;98838.41;5030527;28;20045;-76
2022/03/03 09:25:00;;;;;;;15.75;7.20;;;;;;;4.33;42.76;98842.63;5031057;28;20489;-76
2022/03/03 09:27:25;;;;;;;16.75;6.72;;;;;;;4.30;42.57;98829.75;5013971;28;20061;-79
2022/03/03 09:29:51;;;;;;;13.88;6.70;;;;;;;4.37;41.90;98842.66;5031305;28;20049;-76
2022/03/03 09:32:17;;;;;;;9.57;5.43;;;;;;;4.37;41.63;98840.94;5031180;28;20392;-78
2022/03/03 09:34:45;;;;;;;13.15;5.78;;;;;;;4.37;41.40;98840.94;5031300;28;20504;-79
2022/03/03 09:37:14;;;;;;;12.50;6.22;;;;;;;4.23;42.12;98819.44;5032394;28;20036;-80
2022/03/03 09:39:39;;;;;;;10.45;5.75;;;;;;;4.36;41.80;98836.66;5030962;28;20041;-76
2022/03/03 09:42:05;;;;;;;16.65;6.97;;;;;;;4.49;41.60;98841.03;5032119;28;20608;-78
2022/03/03 09:44:31;;;;;;;23.00;7.53;;;;;;;4.65;42.09;98833.44;4997890;28;20037;-75
2022/03/03 09:46:56;;;;;;;13.75;6.60;;;;;;;4.78;41.98;98833.50;5031350;28;20037;-74
2022/03/03 09:49:22;;;;;;;11.95;6.18;;;;;;;4.84;41.63;98836.09;5014198;28;20064;-77
2022/03/03 09:51:50;;;;;;;16.52;6.35;;;;;;;4.91;41.86;98837.03;5029973;28;20043;-75
2022/03/03 09:54:15;;;;;;;18.25;6.85;;;;;;;5.01;41.24;98833.63;5013810;28;20083;-76
2022/03/03 09:56:41;;;;;;;14.25;6.00;;;;;;;4.94;40.57;98831.03;5030202;28;20124;-76
2022/03/03 09:59:07;;;;;;;12.02;5.75;;;;;;;5.00;40.43;98839.63;5031000;28;20045;-75
2022/03/03 10:01:33;;;;;;;12.85;5.53;;;;;;;4.91;40.70;98831.88;5014048;28;20805;-78
2022/03/03 10:04:17;;;;;;;14.25;5.68;;;;;;;4.91;40.59;98829.31;5031602;28;20817;-76
2022/03/03 10:06:43;;;;;;;14.00;5.32;;;;;;;4.88;40.46;98836.13;5031100;28;20119;-74
2022/03/03 10:09:09;;;;;;;9.05;5.07;;;;;;;4.72;40.05;98832.59;5030161;28;20075;-75
2022/03/03 10:11:40;;;;;;;11.05;5.10;;;;;;;4.86;39.64;98828.44;4997842;28;20084;-76
2022/03/03 10:14:07;;;;;;;9.35;4.47;;;;;;;5.07;38.47;98831.09;5031382;28;20053;-76
2022/03/03 10:16:33;;;;;;;8.65;4.13;;;;;;;5.20;38.43;98833.72;5030234;28;20128;-75
2022/03/03 10:19:03;;;;;;;11.23;3.80;;;;;;;5.21;37.24;98825.16;5029987;28;20588;-74
2022/03/03 10:21:35;;;;;;;8.80;4.63;;;;;;;5.05;37.60;98819.94;5031099;28;20055;-74
2022/03/03 10:24:17;;;;;;;8.23;4.82;;;;;;;5.00;38.46;98811.38;5030930;28;20052;-76
2022/03/03 10:26:44;;;;;;;12.50;5.97;;;;;;;5.03;38.19;98813.94;5029821;28;20076;-75
2022/03/03 10:29:21;;;;;;;11.13;5.28;;;;;;;5.03;38.63;98816.50;5013857;28;20492;-76
2022/03/03 10:31:48;;;;;;;9.20;4.57;;;;;;;5.06;38.51;98816.53;5032111;28;20041;-76
2022/03/03 10:34:22;;;;;;;12.32;5.10;;;;;;;5.08;39.09;98819.09;5033564;28;20099;-75
2022/03/03 10:37:00;;;;;;;15.85;5.20;;;;;;;5.12;38.66;98822.53;5017131;28;20393;-76
2022/03/03 10:39:48;;;;;;;10.63;4.72;;;;;;;5.09;39.24;98816.53;5033402;28;20046;-76
2022/03/03 10:42:20;;;;;;;;;;;;;;;5.23;39.32;98814.03;5017646;28;20496;-75
2022/03/03 10:44:51;;;;;;;10.70;5.10;;;;;;;5.31;39.73;98812.34;5016761;28;20308;-75
2022/03/03 10:47:18;;;;;;;12.65;5.70;;;;;;;5.35;39.09;98813.19;5033325;28;20053;-75
2022/03/03 10:49:47;;;;;;;24.50;10.70;;;;;;;5.35;38.72;98813.19;5034093;28;20048;-75
2022/03/03 10:52:15;;;;;;;13.30;6.10;;;;;;;5.34;39.20;98801.19;5033047;28;20179;-75
2022/03/03 10:54:56;;;;;;;14.65;5.50;;;;;;;5.41;39.32;98802.94;5032362;28;20084;-77
2022/03/03 10:57:38;;;;;;;14.82;5.57;;;;;;;5.32;39.27;98805.50;5033187;28;20477;-76
2022/03/03 11:00:09;;;;;;;12.00;6.20;;;;;;;5.36;39.62;98804.66;5034086;28;20056;-74
2022/03/03 11:02:35;;;;;;;13.98;5.68;;;;;;;5.50;39.44;98802.13;5034262;28;20107;-76
2022/03/03 11:05:01;;;;;;;13.55;6.22;;;;;;;5.69;38.86;98797.84;5016708;28;20095;-76
2022/03/03 11:07:26;;;;;;;10.15;5.30;;;;;;;5.88;38.53;98799.59;5000098;28;20116;-74
2022/03/03 11:09:52;;;;;;;16.25;6.28;;;;;;;6.03;37.76;98793.63;5032686;28;20520;-75
2022/03/03 11:12:19;;;;;;;13.60;5.60;;;;;;;6.07;38.17;98796.19;5016661;28;20045;-74
2022/03/03 11:14:46;;;;;;;15.50;5.50;;;;;;;6.03;37.98;98786.75;5016381;28;20041;-75
2022/03/03 11:17:12;;;;;;;10.20;4.88;;;;;;;5.99;37.76;98782.47;5033037;28;20037;-76
2022/03/03 11:19:38;;;;;;;;;;;;;;;5.99;37.82;98781.59;5016599;28;20521;-75
2022/03/03 11:22:04;;;;;;;13.68;4.95;;;;;;;5.82;38.03;98784.16;5032403;28;19921;-75
2022/03/03 11:24:36;;;;;;;12.50;5.78;;;;;;;5.74;37.99;98785.84;5016226;28;20045;-76
2022/03/03 11:27:03;;;;;;;12.23;5.75;;;;;;;5.72;37.37;98782.41;5016219;28;20127;-76